Portada
METAR-TAF:

METAR-TAF

Aeroports :

Padang, Indonèsia

latitud: 00-47-12S, longitud: 100-16-50E, altitud: 5 m

METAR: manca

Hora: 01:04 (18:04 UTC)

Pronòstic

L'informe es va fer fa 1 hora i 4 minuts, a les 17:00 UTC
Pronòstic vàlid del 21 a les 18 UTC al 22 a les 18 UTC
Vent 3 kt del Sud
Visibilitat: 5000 m
Escasses núvols a una alçada de 2000 ft
Evolucionant progressivament
l' 21 a les 18 UTC al 21 a les 20 UTC
Vent 2 kt del Nord/Nord-Est
Visibilitat: 3000 m
Núvols disperses a una alçada de 2000 ft
fum

TAF: WIEE 211700Z 2118/2218 18003KT 5000 FEW020 BECMG 2118/2120 03002KT 3000 FU SCT020

Observacions i pronòstics meteorològics de més de 4000 aeroports (METAR i TAF).

Les estacions disponibles són els punts grocs i vermells al mapa.

Posi el ratolí al punt desitjat per veure el nom de l'estació.

Feu clic per veure les observacions i els pronòstics meteorològics.

Per canviar el mapa: feu clic els botons verds amb una creu de color negre per apropar; al botó verd amb un guió per allunyar la imatge; o en les fletxes verdes per a mapes adjacents.


METAR-TAF: